Time;durP1;ratioP1;P1;durP2;ratioP2;P2;SDS_P1;SDS_P2;PMS_P1;PMS_P2;Temp;Humidity;BMP_temperature;BMP_pressure;BME280_temperature;BME280_humidity;BME280_pressure;Samples;Min_cycle;Max_cycle;Signal;HPM_P1;HPM_P2
2022/09/05 00:01:45;;;;;;;4.90;4.47;;;;;;;;;;5071690;28;20750;-77
2022/09/05 00:04:15;;;;;;;4.50;4.20;;;;;;;;;;5070894;28;20456;-77
2022/09/05 00:06:45;;;;;;;4.17;3.87;;;;;;;;;;5071081;28;20473;-78
2022/09/05 00:09:15;;;;;;;5.13;4.30;;;;;;;;;;5070874;28;20483;-75
2022/09/05 00:11:46;;;;;;;5.20;4.70;;;;;;;;;;5059139;28;20445;-76
2022/09/05 00:14:39;;;;;;;4.80;4.40;;;;;;;;;;5051408;28;20676;-77
2022/09/05 00:17:10;;;;;;;4.43;4.03;;;;;;;;;;5052071;28;20468;-77
2022/09/05 00:19:42;;;;;;;5.53;5.13;;;;;;;;;;5051278;28;20492;-76
2022/09/05 00:22:18;;;;;;;5.10;4.60;;;;;;;;;;5051341;28;20464;-77
2022/09/05 00:24:51;;;;;;;5.80;4.87;;;;;;;;;;5051218;28;20475;-77
2022/09/05 00:27:24;;;;;;;8.53;6.07;;;;;;;;;;5050794;28;20527;-77
2022/09/05 00:30:04;;;;;;;8.53;6.43;;;;;;;;;;5052014;28;20528;-77
2022/09/05 00:32:46;;;;;;;9.23;8.33;;;;;;;;;;5056576;28;20449;-76
2022/09/05 00:35:24;;;;;;;10.77;7.30;;;;;;;;;;5046787;28;20453;-77
2022/09/05 00:37:51;;;;;;;8.93;7.37;;;;;;;;;;5054749;28;20465;-76
2022/09/05 00:40:21;;;;;;;8.47;7.53;;;;;;;;;;5054646;28;20870;-77
2022/09/05 00:42:49;;;;;;;8.30;6.50;;;;;;;;;;5055331;28;20891;-76
2022/09/05 00:45:19;;;;;;;10.80;6.43;;;;;;;;;;5050578;28;20485;-77
2022/09/05 00:47:49;;;;;;;6.80;6.03;;;;;;;;;;5050643;28;20505;-77
2022/09/05 00:50:21;;;;;;;5.70;5.20;;;;;;;;;;5050768;28;20453;-77
2022/09/05 00:52:52;;;;;;;6.17;5.17;;;;;;;;;;5050396;28;20457;-76
2022/09/05 00:55:21;;;;;;;5.97;5.50;;;;;;;;;;5050839;28;20544;-76
2022/09/05 00:58:06;;;;;;;6.43;5.37;;;;;;;;;;5050638;28;20519;-76
2022/09/05 01:00:45;;;;;;;5.77;5.37;;;;;;;;;;5051569;28;20449;-76
2022/09/05 01:03:25;;;;;;;6.50;5.90;;;;;;;;;;5064055;28;20483;-75
2022/09/05 01:06:14;;;;;;;11.40;9.63;;;;;;;;;;5070758;28;20445;-76
2022/09/05 01:08:52;;;;;;;8.20;7.03;;;;;;;;;;5049416;28;20441;-77
2022/09/05 01:11:31;;;;;;;8.80;6.50;;;;;;;;;;5051130;28;20971;-76
2022/09/05 01:14:03;;;;;;;6.90;5.67;;;;;;;;;;5050791;28;20457;-77
2022/09/05 01:16:34;;;;;;;8.10;7.30;;;;;;;;;;5051164;28;20460;-77
2022/09/05 01:19:05;;;;;;;8.50;7.33;;;;;;;;;;5050822;28;20484;-78
2022/09/05 01:21:50;;;;;;;9.20;6.80;;;;;;;;;;5050665;28;20476;-77
2022/09/05 01:24:32;;;;;;;7.53;6.83;;;;;;;;;;5050301;28;20455;-77
2022/09/05 01:27:33;;;;;;;7.73;6.70;;;;;;;;;;5050440;28;20879;-76
2022/09/05 01:30:05;;;;;;;7.40;6.20;;;;;;;;;;5050310;28;21108;-77
2022/09/05 01:32:37;;;;;;;7.57;6.87;;;;;;;;;;5050451;28;20495;-78
2022/09/05 01:35:25;;;;;;;6.33;5.73;;;;;;;;;;5063977;28;20540;-77
2022/09/05 01:37:54;;;;;;;5.80;5.40;;;;;;;;;;5068383;28;20493;-76
2022/09/05 01:40:27;;;;;;;6.40;5.17;;;;;;;;;;5066554;28;20488;-76
2022/09/05 01:43:06;;;;;;;5.90;5.40;;;;;;;;;;5056070;28;20433;-75
2022/09/05 01:45:45;;;;;;;5.90;5.30;;;;;;;;;;5050011;28;20465;-76
2022/09/05 01:48:14;;;;;;;5.70;5.20;;;;;;;;;;5050089;28;20519;-76
2022/09/05 01:50:44;;;;;;;6.03;5.43;;;;;;;;;;5052015;28;20441;-77
2022/09/05 01:53:26;;;;;;;5.87;5.23;;;;;;;;;;5054439;28;20437;-76
2022/09/05 01:56:03;;;;;;;5.10;4.60;;;;;;;;;;5054917;28;20492;-77
2022/09/05 01:58:40;;;;;;;5.83;5.33;;;;;;;;;;5057743;28;20480;-76
2022/09/05 02:01:12;;;;;;;7.17;5.30;;;;;;;;;;5053335;28;20507;-76
2022/09/05 02:03:42;;;;;;;5.03;4.63;;;;;;;;;;5054308;28;20881;-76
2022/09/05 02:06:35;;;;;;;5.37;4.87;;;;;;;;;;5074598;28;20449;-77
2022/09/05 02:09:11;;;;;;;5.77;4.97;;;;;;;;;;5074417;28;20449;-76
2022/09/05 02:11:40;;;;;;;5.57;5.07;;;;;;;;;;5054222;28;20495;-77
2022/09/05 02:14:19;;;;;;;4.60;4.23;;;;;;;;;;5054333;28;20445;-76
2022/09/05 02:16:46;;;;;;;5.30;4.90;;;;;;;;;;5058622;28;20503;-76
2022/09/05 02:19:16;;;;;;;5.10;4.70;;;;;;;;;;5063437;28;20477;-77
2022/09/05 02:21:47;;;;;;;5.30;4.90;;;;;;;;;;5056204;28;20426;-77
2022/09/05 02:24:16;;;;;;;5.03;4.53;;;;;;;;;;5053967;28;20445;-76
2022/09/05 02:26:48;;;;;;;6.03;5.53;;;;;;;;;;5055742;28;20476;-77
2022/09/05 02:29:21;;;;;;;5.00;4.57;;;;;;;;;;5065632;28;20414;-78
2022/09/05 02:31:49;;;;;;;4.80;4.40;;;;;;;;;;5058909;28;20434;-77
2022/09/05 02:34:21;;;;;;;4.50;4.20;;;;;;;;;;5054755;28;20450;-77
2022/09/05 02:36:52;;;;;;;7.50;5.07;;;;;;;;;;5055092;28;20489;-76
2022/09/05 02:39:21;;;;;;;4.70;4.30;;;;;;;;;;5054801;28;20568;-77
2022/09/05 02:41:53;;;;;;;4.83;4.43;;;;;;;;;;5055135;28;20449;-77
2022/09/05 02:44:24;;;;;;;5.13;4.47;;;;;;;;;;5055114;28;20956;-77
2022/09/05 02:46:56;;;;;;;5.27;4.77;;;;;;;;;;5055894;28;21297;-76
2022/09/05 02:49:31;;;;;;;5.23;4.83;;;;;;;;;;5055120;28;20484;-75
2022/09/05 02:52:01;;;;;;;5.87;4.77;;;;;;;;;;5054556;28;20426;-76
2022/09/05 02:54:30;;;;;;;5.10;4.60;;;;;;;;;;5053823;28;20491;-77
2022/09/05 02:57:04;;;;;;;4.80;4.40;;;;;;;;;;5053079;28;20450;-76
2022/09/05 02:59:39;;;;;;;5.20;4.83;;;;;;;;;;5052516;28;20519;-77
2022/09/05 03:02:11;;;;;;;4.53;4.23;;;;;;;;;;5051969;28;20449;-77
2022/09/05 03:04:44;;;;;;;4.40;4.10;;;;;;;;;;5052478;28;20454;-78
2022/09/05 03:07:20;;;;;;;4.70;4.40;;;;;;;;;;5052768;28;20496;-77
2022/09/05 03:10:00;;;;;;;5.07;4.67;;;;;;;;;;5052876;28;20445;-76
2022/09/05 03:12:42;;;;;;;4.40;4.10;;;;;;;;;;5052370;28;20909;-77
2022/09/05 03:15:28;;;;;;;5.10;4.70;;;;;;;;;;5052134;28;20511;-75
2022/09/05 03:18:04;;;;;;;4.90;4.43;;;;;;;;;;5053723;28;20523;-77
2022/09/05 03:20:50;;;;;;;4.57;4.17;;;;;;;;;;5056689;28;20529;-77
2022/09/05 03:23:31;;;;;;;5.23;4.67;;;;;;;;;;5031162;28;20438;-77
2022/09/05 03:26:27;;;;;;;4.90;3.90;;;;;;;;;;5052519;28;20426;-77
2022/09/05 03:29:06;;;;;;;5.03;4.53;;;;;;;;;;5052327;28;20478;-76
2022/09/05 03:31:55;;;;;;;4.90;4.50;;;;;;;;;;5052157;28;20437;-77
2022/09/05 03:34:32;;;;;;;4.43;4.13;;;;;;;;;;5048716;28;20458;-77
2022/09/05 03:37:12;;;;;;;4.40;4.10;;;;;;;;;;5052675;28;20496;-76
2022/09/05 03:39:54;;;;;;;5.03;4.60;;;;;;;;;;5068799;28;20481;-76
2022/09/05 03:42:42;;;;;;;4.30;4.00;;;;;;;;;;5046842;28;20479;-77
2022/09/05 03:45:21;;;;;;;6.30;4.77;;;;;;;;;;5033687;28;20462;-78
2022/09/05 03:47:55;;;;;;;6.20;4.37;;;;;;;;;;5051569;28;20464;-77
2022/09/05 03:50:43;;;;;;;4.17;3.87;;;;;;;;;;5051261;28;20892;-77
2022/09/05 03:53:24;;;;;;;5.17;4.77;;;;;;;;;;5047879;28;20529;-78
2022/09/05 03:55:59;;;;;;;5.37;4.77;;;;;;;;;;5051596;28;20468;-77
2022/09/05 03:58:42;;;;;;;5.43;4.93;;;;;;;;;;5051636;28;20461;-77
2022/09/05 04:01:11;;;;;;;4.70;4.37;;;;;;;;;;5051625;28;20473;-77
2022/09/05 04:03:41;;;;;;;5.00;4.27;;;;;;;;;;5051809;28;20440;-77
2022/09/05 04:06:12;;;;;;;4.80;4.40;;;;;;;;;;5052393;28;20815;-79
2022/09/05 04:08:43;;;;;;;5.23;4.77;;;;;;;;;;5051619;28;20437;-77
2022/09/05 04:11:14;;;;;;;4.97;4.67;;;;;;;;;;5059191;28;20840;-77
2022/09/05 04:13:46;;;;;;;7.63;5.23;;;;;;;;;;5070344;28;20437;-76
2022/09/05 04:16:16;;;;;;;4.60;4.30;;;;;;;;;;5070752;28;20444;-77
2022/09/05 04:18:45;;;;;;;5.27;4.77;;;;;;;;;;5071253;28;20467;-77
2022/09/05 04:21:15;;;;;;;5.40;4.90;;;;;;;;;;5071288;28;20491;-76
2022/09/05 04:23:48;;;;;;;5.40;5.00;;;;;;;;;;5071207;28;20486;-77
2022/09/05 04:26:25;;;;;;;5.77;4.90;;;;;;;;;;5071016;28;20501;-77
2022/09/05 04:28:56;;;;;;;5.37;4.87;;;;;;;;;;5071409;28;20539;-77
2022/09/05 04:31:30;;;;;;;7.20;5.27;;;;;;;;;;5071158;28;20448;-77
2022/09/05 04:34:03;;;;;;;5.13;4.63;;;;;;;;;;5070695;28;20493;-77
2022/09/05 04:36:31;;;;;;;6.00;5.47;;;;;;;;;;5070867;28;20436;-78
2022/09/05 04:39:24;;;;;;;5.23;4.80;;;;;;;;;;5070920;28;20827;-77
2022/09/05 04:41:52;;;;;;;6.13;5.63;;;;;;;;;;5071212;28;20901;-77
2022/09/05 04:44:20;;;;;;;5.80;5.33;;;;;;;;;;5070436;28;20514;-76
2022/09/05 04:46:49;;;;;;;6.70;5.10;;;;;;;;;;5071678;28;21002;-77
2022/09/05 04:49:17;;;;;;;6.73;5.17;;;;;;;;;;5071252;28;20497;-77
2022/09/05 04:51:54;;;;;;;5.90;5.40;;;;;;;;;;5070738;28;20455;-76
2022/09/05 04:54:32;;;;;;;6.20;5.60;;;;;;;;;;5071207;28;20940;-78
2022/09/05 04:57:03;;;;;;;6.50;5.83;;;;;;;;;;5070820;28;20530;-76
2022/09/05 04:59:32;;;;;;;5.83;5.30;;;;;;;;;;5074716;28;20484;-77
2022/09/05 05:02:00;;;;;;;5.60;4.90;;;;;;;;;;5073747;28;20563;-78
2022/09/05 05:04:28;;;;;;;5.57;5.00;;;;;;;;;;5071010;28;20840;-77
2022/09/05 05:07:01;;;;;;;6.27;5.67;;;;;;;;;;5071241;28;20472;-76
2022/09/05 05:09:31;;;;;;;6.40;5.80;;;;;;;;;;5071060;28;21286;-78
2022/09/05 05:12:01;;;;;;;5.77;5.17;;;;;;;;;;5070860;28;20518;-77
2022/09/05 05:14:31;;;;;;;5.97;5.33;;;;;;;;;;5070533;28;20445;-77
2022/09/05 05:17:00;;;;;;;6.23;5.20;;;;;;;;;;5070956;28;20517;-78
2022/09/05 05:19:29;;;;;;;6.53;5.80;;;;;;;;;;5080968;28;20464;-77
2022/09/05 05:21:58;;;;;;;5.80;5.30;;;;;;;;;;5094649;28;20773;-78
2022/09/05 05:24:28;;;;;;;5.37;4.97;;;;;;;;;;5082635;28;20494;-78
2022/09/05 05:26:59;;;;;;;5.73;5.23;;;;;;;;;;5071872;28;20991;-77
2022/09/05 05:29:33;;;;;;;5.70;5.27;;;;;;;;;;5074534;28;20437;-77
2022/09/05 05:32:02;;;;;;;10.10;6.30;;;;;;;;;;5074179;28;20451;-76
2022/09/05 05:34:30;;;;;;;6.00;5.40;;;;;;;;;;5073890;28;20489;-77
2022/09/05 05:37:01;;;;;;;5.70;5.20;;;;;;;;;;5074015;28;20470;-77
2022/09/05 05:39:29;;;;;;;6.73;5.10;;;;;;;;;;5073805;28;20441;-77
2022/09/05 05:41:57;;;;;;;6.70;5.60;;;;;;;;;;5073497;28;20443;-77
2022/09/05 05:44:26;;;;;;;6.47;5.97;;;;;;;;;;5073750;28;20960;-77
2022/09/05 05:46:57;;;;;;;8.83;6.07;;;;;;;;;;5073473;28;20464;-78
2022/09/05 05:49:26;;;;;;;8.20;5.10;;;;;;;;;;5073441;28;20997;-77
2022/09/05 05:52:04;;;;;;;10.33;5.53;;;;;;;;;;5073961;28;20518;-78
2022/09/05 05:54:35;;;;;;;7.80;6.10;;;;;;;;;;5084530;28;20448;-76
2022/09/05 05:57:19;;;;;;;11.87;6.83;;;;;;;;;;5077031;28;20465;-77
2022/09/05 05:59:58;;;;;;;11.60;6.23;;;;;;;;;;5076665;28;20468;-77
2022/09/05 06:02:45;;;;;;;8.23;5.97;;;;;;;;;;5075630;28;20509;-78
2022/09/05 06:05:21;;;;;;;6.67;6.07;;;;;;;;;;5070177;28;20460;-78
2022/09/05 06:07:53;;;;;;;7.93;5.67;;;;;;;;;;5074498;28;20476;-78
2022/09/05 06:10:35;;;;;;;10.43;5.67;;;;;;;;;;5074460;28;20421;-76
2022/09/05 06:13:33;;;;;;;7.00;5.90;;;;;;;;;;5072440;28;20453;-78
2022/09/05 06:16:22;;;;;;;14.50;5.90;;;;;;;;;;5074167;28;20543;-77
2022/09/05 06:19:09;;;;;;;8.73;6.30;;;;;;;;;;5073534;28;20484;-78
2022/09/05 06:22:06;;;;;;;5.67;5.13;;;;;;;;;;5074127;28;20472;-77
2022/09/05 06:24:47;;;;;;;7.90;5.63;;;;;;;;;;5089611;28;20456;-78
2022/09/05 06:27:26;;;;;;;6.13;5.50;;;;;;;;;;5081697;28;21215;-77
2022/09/05 06:29:58;;;;;;;9.80;6.10;;;;;;;;;;5074288;28;20448;-78
2022/09/05 06:32:33;;;;;;;9.07;6.00;;;;;;;;;;5074263;28;20945;-78
2022/09/05 06:35:10;;;;;;;7.37;5.73;;;;;;;;;;5074248;28;20444;-81
2022/09/05 06:37:42;;;;;;;8.07;6.07;;;;;;;;;;5074388;28;20465;-77
2022/09/05 06:40:13;;;;;;;11.80;10.80;;;;;;;;;;5074279;28;20522;-77
2022/09/05 06:42:53;;;;;;;11.10;9.63;;;;;;;;;;5074116;28;20561;-77
2022/09/05 06:45:26;;;;;;;7.40;6.43;;;;;;;;;;5073970;28;20421;-77
2022/09/05 06:47:57;;;;;;;6.70;6.10;;;;;;;;;;5074437;28;20929;-77
2022/09/05 06:50:30;;;;;;;6.77;5.80;;;;;;;;;;5074912;28;20433;-77
2022/09/05 06:53:21;;;;;;;6.97;6.30;;;;;;;;;;5075751;28;20528;-76
2022/09/05 06:55:58;;;;;;;11.60;5.93;;;;;;;;;;5076198;28;20479;-77
2022/09/05 06:58:55;;;;;;;7.50;6.90;;;;;;;;;;5076552;28;20473;-78
2022/09/05 07:01:26;;;;;;;10.00;6.50;;;;;;;;;;5012655;28;20487;-77
2022/09/05 07:04:00;;;;;;;13.70;6.40;;;;;;;;;;5061028;28;20451;-78
2022/09/05 07:06:30;;;;;;;9.23;5.90;;;;;;;;;;5073323;28;20517;-77
2022/09/05 07:09:01;;;;;;;9.40;6.17;;;;;;;;;;5089974;28;20445;-77
2022/09/05 07:11:32;;;;;;;10.10;8.50;;;;;;;;;;5082925;28;20441;-77
2022/09/05 07:14:02;;;;;;;10.63;9.43;;;;;;;;;;5090685;28;20437;-77
2022/09/05 07:16:36;;;;;;;5.97;5.47;;;;;;;;;;5092741;28;20425;-77
2022/09/05 07:19:11;;;;;;;5.90;5.40;;;;;;;;;;5092471;28;20436;-77
2022/09/05 07:21:42;;;;;;;6.90;5.40;;;;;;;;;;5076957;28;20471;-78
2022/09/05 07:24:11;;;;;;;6.57;5.40;;;;;;;;;;5073255;28;20501;-77
2022/09/05 07:26:42;;;;;;;8.80;5.80;;;;;;;;;;5072795;28;20464;-77
2022/09/05 07:29:09;;;;;;;6.47;5.80;;;;;;;;;;5073234;28;20467;-78
2022/09/05 07:31:38;;;;;;;7.20;5.70;;;;;;;;;;5072711;28;20436;-77
2022/09/05 07:34:08;;;;;;;7.07;5.60;;;;;;;;;;5072218;28;20455;-77
2022/09/05 07:36:39;;;;;;;12.73;6.00;;;;;;;;;;5073043;28;20530;-78
2022/09/05 07:39:06;;;;;;;8.43;6.43;;;;;;;;;;5073694;28;20448;-78
2022/09/05 07:41:38;;;;;;;6.77;6.07;;;;;;;;;;5072757;28;20529;-78
2022/09/05 07:44:10;;;;;;;5.60;5.00;;;;;;;;;;5073573;28;20514;-77
2022/09/05 07:46:38;;;;;;;6.03;4.70;;;;;;;;;;5073757;28;20456;-79
2022/09/05 07:49:08;;;;;;;5.23;4.73;;;;;;;;;;5072572;28;20510;-78
2022/09/05 07:51:36;;;;;;;7.50;5.57;;;;;;;;;;5074871;28;20444;-78
2022/09/05 07:54:06;;;;;;;8.07;5.73;;;;;;;;;;5071635;28;20464;-77
2022/09/05 07:56:41;;;;;;;6.23;5.27;;;;;;;;;;5071819;28;20444;-77
2022/09/05 07:59:11;;;;;;;6.23;4.53;;;;;;;;;;5074427;28;20464;-77
2022/09/05 08:01:41;;;;;;;5.20;4.80;;;;;;;;;;5080809;28;20522;-76
2022/09/05 08:04:08;;;;;;;4.90;4.50;;;;;;;;;;5087342;28;20429;-77
2022/09/05 08:06:35;;;;;;;5.40;5.00;;;;;;;;;;5093633;28;20456;-77
2022/09/05 08:09:04;;;;;;;6.90;5.27;;;;;;;;;;5073333;28;20452;-78
2022/09/05 08:11:32;;;;;;;4.80;4.40;;;;;;;;;;5070948;28;20452;-78
2022/09/05 08:14:04;;;;;;;4.83;4.37;;;;;;;;;;5070980;28;20452;-76
2022/09/05 08:16:33;;;;;;;7.47;5.37;;;;;;;;;;5071380;28;20452;-77
2022/09/05 08:19:08;;;;;;;6.03;4.50;;;;;;;;;;5071372;28;20448;-77
2022/09/05 08:21:41;;;;;;;5.03;4.50;;;;;;;;;;5073866;28;20507;-76
2022/09/05 08:24:11;;;;;;;5.00;4.60;;;;;;;;;;5074380;28;20960;-78
2022/09/05 08:26:41;;;;;;;4.57;4.17;;;;;;;;;;5071989;28;20920;-76
2022/09/05 08:29:11;;;;;;;6.00;4.10;;;;;;;;;;5071662;28;20448;-77
2022/09/05 08:31:43;;;;;;;5.93;4.50;;;;;;;;;;5071082;28;20467;-77
2022/09/05 08:34:14;;;;;;;5.13;4.80;;;;;;;;;;5051362;28;20483;-76
2022/09/05 08:36:45;;;;;;;5.17;4.67;;;;;;;;;;5051191;28;20465;-76
2022/09/05 08:39:13;;;;;;;5.03;4.30;;;;;;;;;;5051307;28;20466;-77
2022/09/05 08:41:50;;;;;;;4.50;4.10;;;;;;;;;;5050717;28;20511;-77
2022/09/05 08:44:18;;;;;;;5.57;4.20;;;;;;;;;;5050602;28;20461;-77
2022/09/05 08:46:49;;;;;;;5.23;4.30;;;;;;;;;;5054141;28;20461;-77
2022/09/05 08:49:39;;;;;;;4.93;4.43;;;;;;;;;;5052433;28;20524;-76
2022/09/05 08:52:09;;;;;;;4.30;3.87;;;;;;;;;;5052334;28;20901;-76
2022/09/05 08:54:38;;;;;;;9.90;4.27;;;;;;;;;;5051489;28;20523;-76
2022/09/05 08:57:10;;;;;;;5.93;4.10;;;;;;;;;;5051272;28;20492;-76
2022/09/05 08:59:43;;;;;;;4.13;3.83;;;;;;;;;;5051668;28;20905;-75
2022/09/05 09:02:26;;;;;;;4.43;4.03;;;;;;;;;;5055912;28;20534;-77
2022/09/05 09:05:05;;;;;;;4.07;3.67;;;;;;;;;;5054872;28;20464;-76
2022/09/05 09:07:35;;;;;;;5.73;3.70;;;;;;;;;;5054632;28;20470;-77
2022/09/05 09:10:04;;;;;;;3.83;3.40;;;;;;;;;;5054794;28;21154;-78
2022/09/05 09:12:46;;;;;;;4.77;4.37;;;;;;;;;;5075070;28;20440;-77
2022/09/05 09:15:19;;;;;;;3.40;3.20;;;;;;;;;;5075731;28;20453;-76
2022/09/05 09:17:49;;;;;;;5.10;3.30;;;;;;;;;;5075954;28;20511;-76
2022/09/05 09:20:22;;;;;;;4.47;3.90;;;;;;;;;;5075606;28;20891;-75
2022/09/05 09:22:55;;;;;;;5.43;3.50;;;;;;;;;;5077687;28;20523;-76
2022/09/05 09:25:23;;;;;;;4.13;3.73;;;;;;;;;;5074302;28;20452;-77
2022/09/05 09:28:02;;;;;;;5.60;3.50;;;;;;;;;;5075182;28;20483;-76
2022/09/05 09:30:30;;;;;;;5.80;3.73;;;;;;;;;;5074478;28;20940;-77
2022/09/05 09:33:03;;;;;;;4.43;3.10;;;;;;;;;;5074024;28;20988;-75
2022/09/05 09:35:37;;;;;;;5.83;3.00;;;;;;;;;;5074581;28;20527;-76
2022/09/05 09:38:20;;;;;;;5.70;3.60;;;;;;;;;;5074617;28;20459;-76
2022/09/05 09:40:58;;;;;;;3.80;3.40;;;;;;;;;;5075216;28;20496;-77
2022/09/05 09:43:27;;;;;;;3.20;3.00;;;;;;;;;;5076366;28;20790;-77
2022/09/05 09:46:03;;;;;;;5.30;3.13;;;;;;;;;;5076402;28;20441;-76
2022/09/05 09:48:42;;;;;;;3.30;3.10;;;;;;;;;;5077217;28;20522;-78
2022/09/05 09:51:25;;;;;;;3.60;3.30;;;;;;;;;;5077344;28;20448;-78
2022/09/05 09:53:58;;;;;;;5.53;3.13;;;;;;;;;;5075942;28;20559;-77
2022/09/05 09:56:53;;;;;;;5.07;3.23;;;;;;;;;;5074732;28;20502;-76
2022/09/05 09:59:29;;;;;;;3.37;3.17;;;;;;;;;;5075525;28;20497;-76
2022/09/05 10:02:06;;;;;;;4.50;3.10;;;;;;;;;;5075791;28;20537;-77
2022/09/05 10:04:49;;;;;;;5.40;3.00;;;;;;;;;;5075913;28;20483;-76
2022/09/05 10:07:37;;;;;;;4.40;3.20;;;;;;;;;;5074471;28;20472;-77
2022/09/05 10:10:18;;;;;;;2.80;2.60;;;;;;;;;;5074601;28;20436;-76
2022/09/05 10:12:56;;;;;;;4.97;3.00;;;;;;;;;;5053286;28;20418;-75
2022/09/05 10:15:26;;;;;;;3.83;2.90;;;;;;;;;;5053978;28;20451;-76
2022/09/05 10:18:03;;;;;;;3.63;2.90;;;;;;;;;;5054313;28;20477;-76
2022/09/05 10:20:40;;;;;;;4.40;2.97;;;;;;;;;;5054825;28;20507;-75
2022/09/05 10:23:15;;;;;;;4.13;2.80;;;;;;;;;;5053623;28;20536;-76
2022/09/05 10:26:03;;;;;;;4.33;3.10;;;;;;;;;;5054783;28;20452;-76
2022/09/05 10:28:37;;;;;;;3.13;2.93;;;;;;;;;;5030531;28;20469;-77
2022/09/05 10:31:08;;;;;;;2.93;2.57;;;;;;;;;;5056143;28;20464;-76
2022/09/05 10:33:38;;;;;;;3.40;3.10;;;;;;;;;;5055038;28;20495;-75
2022/09/05 10:36:21;;;;;;;3.00;2.90;;;;;;;;;;5055221;28;20569;-75
2022/09/05 10:38:51;;;;;;;2.97;2.77;;;;;;;;;;5054758;28;20553;-76
2022/09/05 10:41:21;;;;;;;4.60;3.30;;;;;;;;;;5054881;28;20477;-76
2022/09/05 10:43:50;;;;;;;3.90;3.00;;;;;;;;;;5053625;28;20456;-76
2022/09/05 10:46:32;;;;;;;3.20;3.00;;;;;;;;;;5054309;28;20857;-76
2022/09/05 10:49:03;;;;;;;3.30;3.00;;;;;;;;;;5053939;28;20545;-76
2022/09/05 10:51:34;;;;;;;3.67;3.20;;;;;;;;;;5054569;28;20449;-75
2022/09/05 10:54:11;;;;;;;4.53;2.67;;;;;;;;;;5053730;28;20503;-76
2022/09/05 10:56:40;;;;;;;3.77;2.63;;;;;;;;;;5053464;28;20972;-75
2022/09/05 10:59:16;;;;;;;2.97;2.70;;;;;;;;;;5053938;28;20512;-77
2022/09/05 11:01:46;;;;;;;3.23;3.00;;;;;;;;;;5052918;28;20873;-76
2022/09/05 11:04:16;;;;;;;2.50;2.30;;;;;;;;;;5058322;28;20543;-77
2022/09/05 11:06:50;;;;;;;4.37;2.40;;;;;;;;;;5059079;28;20497;-75
2022/09/05 11:09:24;;;;;;;2.47;2.33;;;;;;;;;;5052752;28;20445;-77
2022/09/05 11:12:03;;;;;;;2.67;2.47;;;;;;;;;;5052391;28;20472;-76
2022/09/05 11:14:40;;;;;;;2.50;2.00;;;;;;;;;;5052788;28;20858;-76
2022/09/05 11:17:11;;;;;;;4.70;2.40;;;;;;;;;;5052770;28;20552;-76
2022/09/05 11:19:42;;;;;;;2.80;2.60;;;;;;;;;;5053042;28;20449;-77
2022/09/05 11:22:11;;;;;;;2.40;2.23;;;;;;;;;;5052807;28;20568;-75
2022/09/05 11:24:42;;;;;;;4.50;2.40;;;;;;;;;;5054350;28;20449;-77
2022/09/05 11:27:11;;;;;;;2.60;2.23;;;;;;;;;;5058617;28;20465;-76
2022/09/05 11:29:42;;;;;;;2.20;2.00;;;;;;;;;;5054354;28;20452;-76
2022/09/05 11:32:23;;;;;;;2.37;2.17;;;;;;;;;;5052401;28;20442;-75
2022/09/05 11:34:59;;;;;;;3.63;2.30;;;;;;;;;;5049709;28;20449;-76
2022/09/05 11:37:35;;;;;;;2.30;2.20;;;;;;;;;;5052342;28;20457;-76
2022/09/05 11:40:23;;;;;;;2.33;2.23;;;;;;;;;;5051873;28;20433;-76
2022/09/05 11:43:04;;;;;;;2.40;2.30;;;;;;;;;;5051429;28;20461;-76
2022/09/05 11:45:40;;;;;;;2.43;2.23;;;;;;;;;;5051517;28;20483;-77
2022/09/05 11:48:20;;;;;;;4.10;2.53;;;;;;;;;;5051644;28;20481;-77
2022/09/05 11:51:02;;;;;;;2.63;2.13;;;;;;;;;;5052164;28;20507;-75
2022/09/05 11:53:42;;;;;;;2.33;2.13;;;;;;;;;;5050579;28;20445;-76
2022/09/05 11:56:29;;;;;;;8.00;2.53;;;;;;;;;;5068800;28;20506;-76
2022/09/05 11:59:14;;;;;;;2.70;2.20;;;;;;;;;;5074964;28;20502;-76
2022/09/05 12:01:46;;;;;;;2.57;2.37;;;;;;;;;;5062414;28;20541;-77
2022/09/05 12:04:18;;;;;;;2.30;2.00;;;;;;;;;;5073419;28;20552;-75
2022/09/05 12:06:59;;;;;;;2.27;2.17;;;;;;;;;;5071668;28;20468;-76
2022/09/05 12:09:34;;;;;;;2.30;2.00;;;;;;;;;;5071868;28;20440;-77
2022/09/05 12:12:07;;;;;;;3.40;2.07;;;;;;;;;;5071663;28;20443;-78
2022/09/05 12:14:38;;;;;;;2.60;2.40;;;;;;;;;;5070823;28;20490;-76
2022/09/05 12:17:08;;;;;;;2.37;2.20;;;;;;;;;;5070967;28;20908;-77
2022/09/05 12:19:40;;;;;;;2.37;2.07;;;;;;;;;;5071037;28;20502;-77
2022/09/05 12:22:18;;;;;;;2.40;2.20;;;;;;;;;;5070977;28;20571;-76
2022/09/05 12:24:54;;;;;;;2.17;2.00;;;;;;;;;;5071348;28;20445;-76
2022/09/05 12:27:21;;;;;;;3.70;2.23;;;;;;;;;;5071305;28;20577;-77
2022/09/05 12:29:53;;;;;;;2.40;2.20;;;;;;;;;;5071451;28;20444;-77
2022/09/05 12:32:24;;;;;;;2.60;2.30;;;;;;;;;;5071285;28;20452;-76
2022/09/05 12:34:52;;;;;;;2.10;2.00;;;;;;;;;;5070897;28;20437;-77
2022/09/05 12:37:26;;;;;;;2.83;2.33;;;;;;;;;;5071880;28;20468;-76
2022/09/05 12:39:56;;;;;;;2.37;1.97;;;;;;;;;;5071897;28;20532;-77
2022/09/05 12:42:27;;;;;;;2.40;2.30;;;;;;;;;;5071224;28;20476;-76
2022/09/05 12:45:08;;;;;;;2.20;2.10;;;;;;;;;;5071052;28;20531;-76
2022/09/05 12:47:45;;;;;;;4.63;2.40;;;;;;;;;;5070899;28;20472;-76
2022/09/05 12:50:16;;;;;;;1.97;1.87;;;;;;;;;;5070315;28;20436;-76
2022/09/05 12:52:45;;;;;;;2.10;2.00;;;;;;;;;;5070171;28;20504;-78
2022/09/05 12:55:19;;;;;;;2.60;2.40;;;;;;;;;;5070393;28;20425;-77
2022/09/05 12:57:49;;;;;;;5.83;2.87;;;;;;;;;;5070197;28;20464;-79
2022/09/05 13:00:20;;;;;;;2.10;1.90;;;;;;;;;;5069833;28;20498;-76
2022/09/05 13:02:52;;;;;;;2.40;2.30;;;;;;;;;;5070707;28;20473;-78
2022/09/05 13:05:24;;;;;;;2.60;2.10;;;;;;;;;;5070570;28;20506;-78
2022/09/05 13:07:55;;;;;;;2.30;2.20;;;;;;;;;;5071826;28;20504;-79
2022/09/05 13:10:29;;;;;;;4.80;2.40;;;;;;;;;;5069810;28;20444;-79
2022/09/05 13:12:58;;;;;;;3.13;2.03;;;;;;;;;;5050772;28;20495;-78
2022/09/05 13:15:26;;;;;;;1.90;1.80;;;;;;;;;;5050378;28;20967;-78
2022/09/05 13:17:59;;;;;;;5.20;2.20;;;;;;;;;;5050896;28;20523;-77
2022/09/05 13:20:31;;;;;;;3.63;2.00;;;;;;;;;;5049752;28;20525;-76
2022/09/05 13:23:01;;;;;;;2.13;1.93;;;;;;;;;;5050835;28;20461;-77
2022/09/05 13:25:30;;;;;;;2.23;2.13;;;;;;;;;;5050576;28;20787;-77
2022/09/05 13:28:00;;;;;;;2.10;2.00;;;;;;;;;;5051628;28;20465;-78
2022/09/05 13:30:27;;;;;;;2.07;1.87;;;;;;;;;;5051275;28;20446;-76
2022/09/05 13:32:55;;;;;;;2.63;2.43;;;;;;;;;;5050158;28;20437;-77
2022/09/05 13:35:23;;;;;;;2.97;2.03;;;;;;;;;;5050729;28;20532;-77
2022/09/05 13:37:55;;;;;;;2.13;2.03;;;;;;;;;;5059227;28;20441;-74
2022/09/05 13:40:24;;;;;;;2.50;1.77;;;;;;;;;;5071964;28;20434;-76
2022/09/05 13:42:59;;;;;;;3.90;2.10;;;;;;;;;;5071129;28;20483;-77
2022/09/05 13:45:28;;;;;;;2.47;2.30;;;;;;;;;;5073827;28;20455;-76
2022/09/05 13:48:04;;;;;;;2.17;2.00;;;;;;;;;;5078068;28;20464;-74
2022/09/05 13:50:34;;;;;;;2.30;2.20;;;;;;;;;;5060546;28;20569;-77
2022/09/05 13:53:03;;;;;;;3.47;2.57;;;;;;;;;;5055479;28;20445;-79
2022/09/05 13:55:37;;;;;;;2.00;1.90;;;;;;;;;;5054916;28;20543;-77
2022/09/05 13:58:08;;;;;;;2.37;2.17;;;;;;;;;;5053907;28;20553;-77
2022/09/05 14:00:53;;;;;;;2.00;1.90;;;;;;;;;;5054325;28;20485;-78
2022/09/05 14:03:28;;;;;;;2.50;2.07;;;;;;;;;;5053192;28;20485;-76
2022/09/05 14:06:01;;;;;;;1.93;1.83;;;;;;;;;;5054363;28;20818;-76
2022/09/05 14:08:39;;;;;;;2.60;2.17;;;;;;;;;;5060232;28;20465;-76
2022/09/05 14:11:13;;;;;;;2.00;1.90;;;;;;;;;;5062128;28;20469;-77
2022/09/05 14:13:49;;;;;;;2.30;2.20;;;;;;;;;;5060780;28;20445;-77
2022/09/05 14:16:24;;;;;;;1.67;1.67;;;;;;;;;;5054649;28;20453;-77
2022/09/05 14:21:39;;;;;;;2.07;1.67;;;;;;;;;;5036039;28;20514;-77
2022/09/05 14:24:12;;;;;;;2.20;2.10;;;;;;;;;;5053668;28;20493;-76
2022/09/05 14:26:42;;;;;;;3.90;2.23;;;;;;;;;;5054691;28;20469;-76
2022/09/05 14:29:16;;;;;;;2.10;2.00;;;;;;;;;;5054685;28;20456;-77
2022/09/05 14:32:03;;;;;;;1.83;1.73;;;;;;;;;;5056270;28;20444;-78
2022/09/05 14:34:43;;;;;;;3.90;2.10;;;;;;;;;;5062682;28;20442;-77
2022/09/05 14:37:15;;;;;;;2.30;2.20;;;;;;;;;;5059089;28;20480;-77
2022/09/05 14:40:09;;;;;;;2.00;1.90;;;;;;;;;;5053375;28;20503;-77
2022/09/05 14:42:45;;;;;;;2.93;2.00;;;;;;;;;;5029161;28;20911;-77
2022/09/05 14:45:24;;;;;;;1.97;1.87;;;;;;;;;;5053959;28;20441;-77
2022/09/05 14:48:04;;;;;;;2.10;1.90;;;;;;;;;;5070138;28;20458;-77
2022/09/05 14:50:38;;;;;;;2.67;2.47;;;;;;;;;;5055366;28;20495;-76
2022/09/05 14:53:06;;;;;;;2.27;2.07;;;;;;;;;;5052428;28;20514;-76
2022/09/05 14:55:33;;;;;;;2.20;2.10;;;;;;;;;;5052331;28;20445;-77
2022/09/05 14:58:00;;;;;;;3.37;1.93;;;;;;;;;;5051560;28;20514;-77
2022/09/05 15:00:30;;;;;;;2.43;2.23;;;;;;;;;;5051976;28;21013;-77
2022/09/05 15:03:00;;;;;;;2.10;2.00;;;;;;;;;;5051991;28;20488;-75
2022/09/05 15:05:35;;;;;;;3.60;2.00;;;;;;;;;;5052290;28;20839;-78
2022/09/05 15:08:04;;;;;;;2.77;2.10;;;;;;;;;;5052328;28;20559;-76
2022/09/05 15:10:33;;;;;;;2.00;1.90;;;;;;;;;;5054581;28;20955;-76
2022/09/05 15:13:02;;;;;;;2.30;2.20;;;;;;;;;;5071824;28;20448;-76
2022/09/05 15:15:34;;;;;;;2.43;1.77;;;;;;;;;;5071984;28;20551;-77
2022/09/05 15:18:03;;;;;;;2.10;2.00;;;;;;;;;;5072040;28;20479;-77
2022/09/05 15:20:32;;;;;;;2.10;1.90;;;;;;;;;;5072509;28;20445;-76
2022/09/05 15:23:01;;;;;;;2.10;1.90;;;;;;;;;;5071715;28;20559;-77
2022/09/05 15:25:29;;;;;;;4.40;2.50;;;;;;;;;;5071977;28;20456;-77
2022/09/05 15:27:56;;;;;;;3.73;2.40;;;;;;;;;;5072025;28;20480;-76